sensor_id;sensor_type;location;lat;lon;timestamp;pressure;altitude;pressure_sealevel;temperature;humidity
59055;BME280;44845;51.444;7.460;2023-05-07T00:01:36;99776.31;;;13.61;83.76
59055;BME280;44845;51.444;7.460;2023-05-07T00:04:01;99775.50;;;13.57;84.18
59055;BME280;44845;51.444;7.460;2023-05-07T00:06:28;99785.72;;;13.73;83.70
59055;BME280;44845;51.444;7.460;2023-05-07T00:08:54;99785.94;;;13.64;83.81
59055;BME280;44845;51.444;7.460;2023-05-07T00:11:19;99783.31;;;13.62;84.05
59055;BME280;44845;51.444;7.460;2023-05-07T00:13:44;99782.47;;;13.61;84.05
59055;BME280;44845;51.444;7.460;2023-05-07T00:16:10;99788.56;;;13.64;83.94
59055;BME280;44845;51.444;7.460;2023-05-07T00:18:35;99783.13;;;13.71;83.63
59055;BME280;44845;51.444;7.460;2023-05-07T00:21:01;99792.81;;;13.71;83.68
59055;BME280;44845;51.444;7.460;2023-05-07T00:23:26;99785.00;;;13.65;84.13
59055;BME280;44845;51.444;7.460;2023-05-07T00:25:51;99788.56;;;13.64;84.20
59055;BME280;44845;51.444;7.460;2023-05-07T00:28:17;99792.16;;;13.59;84.30
59055;BME280;44845;51.444;7.460;2023-05-07T00:30:42;99789.50;;;13.59;84.67
59055;BME280;44845;51.444;7.460;2023-05-07T00:33:07;99789.44;;;13.62;84.34
59055;BME280;44845;51.444;7.460;2023-05-07T00:35:33;99784.94;;;13.68;84.28
59055;BME280;44845;51.444;7.460;2023-05-07T00:37:58;99780.69;;;13.62;84.38
59055;BME280;44845;51.444;7.460;2023-05-07T00:40:23;99784.13;;;13.66;84.53
59055;BME280;44845;51.444;7.460;2023-05-07T00:42:49;99786.00;;;13.60;84.73
59055;BME280;44845;51.444;7.460;2023-05-07T00:45:15;99784.13;;;13.66;84.80
59055;BME280;44845;51.444;7.460;2023-05-07T00:47:42;99785.78;;;13.70;84.38
59055;BME280;44845;51.444;7.460;2023-05-07T00:50:08;99783.91;;;13.75;84.29
59055;BME280;44845;51.444;7.460;2023-05-07T00:52:36;99776.19;;;13.67;84.55
59055;BME280;44845;51.444;7.460;2023-05-07T00:55:05;99783.97;;;13.73;84.55
59055;BME280;44845;51.444;7.460;2023-05-07T00:57:34;99785.66;;;13.76;84.29
59055;BME280;44845;51.444;7.460;2023-05-07T01:00:02;99779.38;;;13.82;84.03
59055;BME280;44845;51.444;7.460;2023-05-07T01:02:28;99781.22;;;13.77;84.47
59055;BME280;44845;51.444;7.460;2023-05-07T01:04:54;99784.63;;;13.82;84.04
59055;BME280;44845;51.444;7.460;2023-05-07T01:07:20;99775.97;;;13.77;84.30
59055;BME280;44845;51.444;7.460;2023-05-07T01:09:45;99773.53;;;13.69;84.50
59055;BME280;44845;51.444;7.460;2023-05-07T01:12:11;99769.97;;;13.70;84.36
59055;BME280;44845;51.444;7.460;2023-05-07T01:14:37;99766.44;;;13.71;84.09
59055;BME280;44845;51.444;7.460;2023-05-07T01:17:02;99765.41;;;13.77;84.21
59055;BME280;44845;51.444;7.460;2023-05-07T01:19:29;99771.72;;;13.71;84.13
59055;BME280;44845;51.444;7.460;2023-05-07T01:22:01;99761.97;;;13.74;84.05
59055;BME280;44845;51.444;7.460;2023-05-07T01:24:29;99760.41;;;13.66;84.48
59055;BME280;44845;51.444;7.460;2023-05-07T01:26:55;99765.56;;;13.70;84.40
59055;BME280;44845;51.444;7.460;2023-05-07T01:29:20;99760.34;;;13.69;84.46
59055;BME280;44845;51.444;7.460;2023-05-07T01:31:46;99758.53;;;13.71;84.18
59055;BME280;44845;51.444;7.460;2023-05-07T01:34:13;99757.72;;;13.69;84.62
59055;BME280;44845;51.444;7.460;2023-05-07T01:36:42;99764.69;;;13.70;84.37
59055;BME280;44845;51.444;7.460;2023-05-07T01:39:11;99760.31;;;13.70;84.19
59055;BME280;44845;51.444;7.460;2023-05-07T01:41:37;99769.84;;;13.76;84.11
59055;BME280;44845;51.444;7.460;2023-05-07T01:44:03;99771.78;;;13.68;84.25
59055;BME280;44845;51.444;7.460;2023-05-07T01:46:29;99759.81;;;13.51;84.99
59055;BME280;44845;51.444;7.460;2023-05-07T01:48:56;99760.47;;;13.62;84.44
59055;BME280;44845;51.444;7.460;2023-05-07T01:51:21;99765.88;;;13.56;84.85
59055;BME280;44845;51.444;7.460;2023-05-07T01:53:47;99762.34;;;13.57;84.69
59055;BME280;44845;51.444;7.460;2023-05-07T01:56:16;99763.22;;;13.58;84.54
59055;BME280;44845;51.444;7.460;2023-05-07T01:58:41;99770.34;;;13.51;84.80
59055;BME280;44845;51.444;7.460;2023-05-07T02:01:07;99773.66;;;13.62;84.62
59055;BME280;44845;51.444;7.460;2023-05-07T02:03:32;99774.75;;;13.50;85.05
59055;BME280;44845;51.444;7.460;2023-05-07T02:05:57;99770.25;;;13.57;85.01
59055;BME280;44845;51.444;7.460;2023-05-07T02:08:23;99769.97;;;13.70;84.35
59055;BME280;44845;51.444;7.460;2023-05-07T02:10:48;99764.75;;;13.67;84.11
59055;BME280;44845;51.444;7.460;2023-05-07T02:13:15;99758.75;;;13.61;84.14
59055;BME280;44845;51.444;7.460;2023-05-07T02:15:40;99759.44;;;13.70;83.58
59055;BME280;44845;51.444;7.460;2023-05-07T02:18:07;99770.75;;;13.75;83.14
59055;BME280;44845;51.444;7.460;2023-05-07T02:20:32;99760.34;;;13.69;83.30
59055;BME280;44845;51.444;7.460;2023-05-07T02:22:58;99768.38;;;13.62;83.74
59055;BME280;44845;51.444;7.460;2023-05-07T02:25:23;99763.09;;;13.62;83.86
59055;BME280;44845;51.444;7.460;2023-05-07T02:27:49;99756.19;;;13.58;83.75
59055;BME280;44845;51.444;7.460;2023-05-07T02:30:14;99758.16;;;13.47;83.93
59055;BME280;44845;51.444;7.460;2023-05-07T02:32:40;99752.75;;;13.53;83.74
59055;BME280;44845;51.444;7.460;2023-05-07T02:35:05;99754.66;;;13.45;83.54
59055;BME280;44845;51.444;7.460;2023-05-07T02:37:31;99751.91;;;13.51;83.24
59055;BME280;44845;51.444;7.460;2023-05-07T02:39:56;99750.31;;;13.44;83.60
59055;BME280;44845;51.444;7.460;2023-05-07T02:42:21;99749.66;;;13.32;83.76
59055;BME280;44845;51.444;7.460;2023-05-07T02:44:47;99751.44;;;13.30;83.83
59055;BME280;44845;51.444;7.460;2023-05-07T02:47:14;99751.34;;;13.36;83.32
59055;BME280;44845;51.444;7.460;2023-05-07T02:49:39;99748.91;;;13.25;83.30
59055;BME280;44845;51.444;7.460;2023-05-07T02:52:04;99749.75;;;13.29;83.32
59055;BME280;44845;51.444;7.460;2023-05-07T02:54:30;99751.44;;;13.30;83.39
59055;BME280;44845;51.444;7.460;2023-05-07T02:56:55;99749.97;;;13.16;83.81
59055;BME280;44845;51.444;7.460;2023-05-07T02:59:21;99746.44;;;13.17;83.30
59055;BME280;44845;51.444;7.460;2023-05-07T03:01:46;99745.78;;;13.06;83.97
59055;BME280;44845;51.444;7.460;2023-05-07T03:04:13;99736.81;;;13.16;83.65
59055;BME280;44845;51.444;7.460;2023-05-07T03:06:38;99741.31;;;13.11;83.42
59055;BME280;44845;51.444;7.460;2023-05-07T03:09:04;99753.59;;;13.12;83.72
59055;BME280;44845;51.444;7.460;2023-05-07T03:11:29;99751.97;;;13.05;83.99
59055;BME280;44845;51.444;7.460;2023-05-07T03:13:55;99750.22;;;13.04;83.96
59055;BME280;44845;51.444;7.460;2023-05-07T03:16:20;99749.34;;;13.03;84.40
59055;BME280;44845;51.444;7.460;2023-05-07T03:18:45;99750.19;;;13.07;84.14
59055;BME280;44845;51.444;7.460;2023-05-07T03:21:11;99757.09;;;13.11;83.96
59055;BME280;44845;51.444;7.460;2023-05-07T03:23:36;99757.97;;;13.12;83.99
59055;BME280;44845;51.444;7.460;2023-05-07T03:26:01;99759.88;;;13.05;84.05
59055;BME280;44845;51.444;7.460;2023-05-07T03:28:27;99751.84;;;13.11;83.85
59055;BME280;44845;51.444;7.460;2023-05-07T03:30:52;99760.75;;;13.04;84.21
59055;BME280;44845;51.444;7.460;2023-05-07T03:33:18;99757.88;;;13.16;83.67
59055;BME280;44845;51.444;7.460;2023-05-07T03:35:43;99756.22;;;13.11;83.74
59055;BME280;44845;51.444;7.460;2023-05-07T03:38:08;99757.28;;;13.02;84.11
59055;BME280;44845;51.444;7.460;2023-05-07T03:40:34;99754.47;;;13.11;84.02
59055;BME280;44845;51.444;7.460;2023-05-07T03:43:00;99755.53;;;13.02;84.14
59055;BME280;44845;51.444;7.460;2023-05-07T03:45:25;99759.09;;;13.00;84.57
59055;BME280;44845;51.444;7.460;2023-05-07T03:47:51;99759.88;;;13.03;84.19
59055;BME280;44845;51.444;7.460;2023-05-07T03:50:16;99762.50;;;13.05;84.36
59055;BME280;44845;51.444;7.460;2023-05-07T03:52:41;99764.34;;;13.00;84.43
59055;BME280;44845;51.444;7.460;2023-05-07T03:55:07;99770.66;;;12.91;85.03
59055;BME280;44845;51.444;7.460;2023-05-07T03:57:32;99771.28;;;13.04;84.18
59055;BME280;44845;51.444;7.460;2023-05-07T03:59:58;99774.81;;;13.03;84.62
59055;BME280;44845;51.444;7.460;2023-05-07T04:02:23;99773.03;;;13.05;84.39
59055;BME280;44845;51.444;7.460;2023-05-07T04:04:49;99774.56;;;13.15;84.31
59055;BME280;44845;51.444;7.460;2023-05-07T04:07:14;99767.63;;;13.11;84.34
59055;BME280;44845;51.444;7.460;2023-05-07T04:09:40;99772.75;;;13.17;84.20
59055;BME280;44845;51.444;7.460;2023-05-07T04:12:05;99780.81;;;13.11;84.22
59055;BME280;44845;51.444;7.460;2023-05-07T04:14:31;99774.56;;;13.15;84.24
59055;BME280;44845;51.444;7.460;2023-05-07T04:16:57;99781.69;;;13.10;84.82
59055;BME280;44845;51.444;7.460;2023-05-07T04:19:23;99785.94;;;13.17;84.33
59055;BME280;44845;51.444;7.460;2023-05-07T04:21:48;99783.44;;;13.11;84.17
59055;BME280;44845;51.444;7.460;2023-05-07T04:24:14;99783.72;;;12.97;85.11
59055;BME280;44845;51.444;7.460;2023-05-07T04:26:39;99789.53;;;13.15;84.50
59055;BME280;44845;51.444;7.460;2023-05-07T04:29:05;99774.66;;;13.12;84.50
59055;BME280;44845;51.444;7.460;2023-05-07T04:31:30;99775.41;;;13.17;84.38
59055;BME280;44845;51.444;7.460;2023-05-07T04:33:56;99781.38;;;13.26;83.97
59055;BME280;44845;51.444;7.460;2023-05-07T04:36:22;99782.34;;;13.22;84.19
59055;BME280;44845;51.444;7.460;2023-05-07T04:38:47;99774.50;;;13.18;84.19
59055;BME280;44845;51.444;7.460;2023-05-07T04:41:13;99784.06;;;13.24;84.37
59055;BME280;44845;51.444;7.460;2023-05-07T04:43:38;99781.34;;;13.29;84.01
59055;BME280;44845;51.444;7.460;2023-05-07T04:46:03;99780.41;;;13.30;83.94
59055;BME280;44845;51.444;7.460;2023-05-07T04:48:29;99788.50;;;13.21;84.38
59055;BME280;44845;51.444;7.460;2023-05-07T04:50:54;99791.97;;;13.24;84.63
59055;BME280;44845;51.444;7.460;2023-05-07T04:53:20;99794.59;;;13.24;84.71
59055;BME280;44845;51.444;7.460;2023-05-07T04:55:46;99794.34;;;13.37;84.18
59055;BME280;44845;51.444;7.460;2023-05-07T04:58:12;99803.19;;;13.34;84.21
59055;BME280;44845;51.444;7.460;2023-05-07T05:00:37;99799.47;;;13.43;84.30
59055;BME280;44845;51.444;7.460;2023-05-07T05:03:04;99793.47;;;13.36;84.73
59055;BME280;44845;51.444;7.460;2023-05-07T05:05:30;99798.69;;;13.39;84.58
59055;BME280;44845;51.444;7.460;2023-05-07T05:07:55;99795.91;;;13.46;84.60
59055;BME280;44845;51.444;7.460;2023-05-07T05:10:22;99792.16;;;13.59;84.46
59055;BME280;44845;51.444;7.460;2023-05-07T05:12:47;99785.00;;;13.66;84.22
59055;BME280;44845;51.444;7.460;2023-05-07T05:15:12;99788.97;;;13.84;83.15
59055;BME280;44845;51.444;7.460;2023-05-07T05:17:38;99789.78;;;13.88;81.94
59055;BME280;44845;51.444;7.460;2023-05-07T05:20:04;99793.34;;;13.85;81.86
59055;BME280;44845;51.444;7.460;2023-05-07T05:22:31;99796.00;;;13.85;82.07
59055;BME280;44845;51.444;7.460;2023-05-07T05:24:56;99797.03;;;13.77;81.76
59055;BME280;44845;51.444;7.460;2023-05-07T05:27:22;99801.31;;;13.82;81.86
59055;BME280;44845;51.444;7.460;2023-05-07T05:29:47;99797.66;;;13.90;81.91
59055;BME280;44845;51.444;7.460;2023-05-07T05:32:12;99797.53;;;13.96;81.56
59055;BME280;44845;51.444;7.460;2023-05-07T05:34:38;99804.41;;;14.03;82.04
59055;BME280;44845;51.444;7.460;2023-05-07T05:37:03;99800.78;;;14.07;81.78
59055;BME280;44845;51.444;7.460;2023-05-07T05:39:29;99800.78;;;14.06;81.01
59055;BME280;44845;51.444;7.460;2023-05-07T05:41:54;99800.84;;;14.04;80.48
59055;BME280;44845;51.444;7.460;2023-05-07T05:44:19;99798.06;;;14.11;81.65
59055;BME280;44845;51.444;7.460;2023-05-07T05:46:45;99811.88;;;14.22;81.00
59055;BME280;44845;51.444;7.460;2023-05-07T05:49:10;99813.50;;;14.26;80.76
59055;BME280;44845;51.444;7.460;2023-05-07T05:51:36;99810.81;;;14.29;81.08
59055;BME280;44845;51.444;7.460;2023-05-07T05:54:01;99812.53;;;14.30;81.06
59055;BME280;44845;51.444;7.460;2023-05-07T05:56:26;99809.00;;;14.32;79.21
59055;BME280;44845;51.444;7.460;2023-05-07T05:58:52;99807.16;;;14.35;80.54
59055;BME280;44845;51.444;7.460;2023-05-07T06:01:18;99804.31;;;14.43;79.08
59055;BME280;44845;51.444;7.460;2023-05-07T06:03:44;99803.50;;;14.41;79.42
59055;BME280;44845;51.444;7.460;2023-05-07T06:06:09;99808.69;;;14.44;79.65
59055;BME280;44845;51.444;7.460;2023-05-07T06:08:34;99812.03;;;14.52;80.27
59055;BME280;44845;51.444;7.460;2023-05-07T06:11:01;99812.88;;;14.53;80.16
59055;BME280;44845;51.444;7.460;2023-05-07T06:13:26;99811.78;;;14.62;80.53
59055;BME280;44845;51.444;7.460;2023-05-07T06:15:51;99816.75;;;14.74;79.24
59055;BME280;44845;51.444;7.460;2023-05-07T06:18:17;99811.56;;;14.71;79.21
59055;BME280;44845;51.444;7.460;2023-05-07T06:20:42;99819.22;;;14.81;79.27
59055;BME280;44845;51.444;7.460;2023-05-07T06:23:07;99822.56;;;14.89;79.06
59055;BME280;44845;51.444;7.460;2023-05-07T06:25:33;99827.72;;;14.94;79.08
59055;BME280;44845;51.444;7.460;2023-05-07T06:27:58;99826.59;;;15.03;79.27
59055;BME280;44845;51.444;7.460;2023-05-07T06:30:23;99823.91;;;15.04;77.42
59055;BME280;44845;51.444;7.460;2023-05-07T06:32:49;99823.97;;;15.03;78.04
59055;BME280;44845;51.444;7.460;2023-05-07T06:35:14;99821.25;;;15.06;77.76
59055;BME280;44845;51.444;7.460;2023-05-07T06:37:41;99829.94;;;15.11;78.49
59055;BME280;44845;51.444;7.460;2023-05-07T06:40:08;99828.19;;;15.10;78.42
59055;BME280;44845;51.444;7.460;2023-05-07T06:42:33;99830.88;;;15.08;77.02
59055;BME280;44845;51.444;7.460;2023-05-07T06:44:59;99825.53;;;15.10;77.10
59055;BME280;44845;51.444;7.460;2023-05-07T06:47:24;99829.94;;;15.11;77.93
59055;BME280;44845;51.444;7.460;2023-05-07T06:49:50;99830.53;;;15.21;78.04
59055;BME280;44845;51.444;7.460;2023-05-07T06:52:15;99831.50;;;15.18;78.71
59055;BME280;44845;51.444;7.460;2023-05-07T06:54:41;99839.16;;;15.28;76.97
59055;BME280;44845;51.444;7.460;2023-05-07T06:57:06;99838.47;;;15.21;77.63
59055;BME280;44845;51.444;7.460;2023-05-07T06:59:32;99837.34;;;15.30;78.51
59055;BME280;44845;51.444;7.460;2023-05-07T07:01:57;99846.13;;;15.30;77.20
59055;BME280;44845;51.444;7.460;2023-05-07T07:04:22;99841.53;;;15.37;78.20
59055;BME280;44845;51.444;7.460;2023-05-07T07:06:49;99843.34;;;15.35;76.82
59055;BME280;44845;51.444;7.460;2023-05-07T07:09:16;99843.91;;;15.47;76.10
59055;BME280;44845;51.444;7.460;2023-05-07T07:11:42;99841.25;;;15.48;75.85
59055;BME280;44845;51.444;7.460;2023-05-07T07:14:07;99838.50;;;15.51;76.62
59055;BME280;44845;51.444;7.460;2023-05-07T07:16:32;99843.63;;;15.58;76.73
59055;BME280;44845;51.444;7.460;2023-05-07T07:18:58;99833.06;;;15.56;75.32
59055;BME280;44845;51.444;7.460;2023-05-07T07:21:23;99832.53;;;15.45;76.16
59055;BME280;44845;51.444;7.460;2023-05-07T07:23:48;99827.19;;;15.46;76.06
59055;BME280;44845;51.444;7.460;2023-05-07T07:26:14;99831.44;;;15.52;77.11
59055;BME280;44845;51.444;7.460;2023-05-07T07:28:45;99833.19;;;15.53;76.91
59055;BME280;44845;51.444;7.460;2023-05-07T07:31:12;99831.31;;;15.57;76.16
59055;BME280;44845;51.444;7.460;2023-05-07T07:33:37;99831.97;;;15.63;75.55
59055;BME280;44845;51.444;7.460;2023-05-07T07:36:02;99839.81;;;15.67;76.13
59055;BME280;44845;51.444;7.460;2023-05-07T07:38:28;99847.53;;;15.74;74.75
59055;BME280;44845;51.444;7.460;2023-05-07T07:40:53;99841.91;;;15.85;76.40
59055;BME280;44845;51.444;7.460;2023-05-07T07:43:19;99839.00;;;15.95;73.97
59055;BME280;44845;51.444;7.460;2023-05-07T07:45:44;99838.75;;;16.03;73.27
59055;BME280;44845;51.444;7.460;2023-05-07T07:48:11;99829.00;;;16.06;73.41
59055;BME280;44845;51.444;7.460;2023-05-07T07:50:36;99823.97;;;15.97;72.27
59055;BME280;44845;51.444;7.460;2023-05-07T07:53:01;99835.25;;;16.02;72.40
59055;BME280;44845;51.444;7.460;2023-05-07T07:55:27;99832.63;;;16.02;72.78
59055;BME280;44845;51.444;7.460;2023-05-07T07:57:52;99840.50;;;16.04;73.12
59055;BME280;44845;51.444;7.460;2023-05-07T08:00:18;99840.31;;;16.10;72.79
59055;BME280;44845;51.444;7.460;2023-05-07T08:02:43;99841.31;;;16.07;73.09
59055;BME280;44845;51.444;7.460;2023-05-07T08:05:08;99844.91;;;16.03;72.32
59055;BME280;44845;51.444;7.460;2023-05-07T08:07:34;99850.16;;;16.06;72.15
59055;BME280;44845;51.444;7.460;2023-05-07T08:09:59;99846.59;;;16.07;72.20
59055;BME280;44845;51.444;7.460;2023-05-07T08:12:24;99844.03;;;16.04;72.97
59055;BME280;44845;51.444;7.460;2023-05-07T08:14:50;99856.84;;;16.18;71.76
59055;BME280;44845;51.444;7.460;2023-05-07T08:17:15;99855.16;;;16.16;72.02
59055;BME280;44845;51.444;7.460;2023-05-07T08:19:42;99851.59;;;16.17;73.64
59055;BME280;44845;51.444;7.460;2023-05-07T08:22:07;99858.22;;;16.30;71.38
59055;BME280;44845;51.444;7.460;2023-05-07T08:24:33;99858.22;;;16.30;72.51
59055;BME280;44845;51.444;7.460;2023-05-07T08:26:58;99858.22;;;16.30;71.71
59055;BME280;44845;51.444;7.460;2023-05-07T08:29:24;99854.47;;;16.38;74.11
59055;BME280;44845;51.444;7.460;2023-05-07T08:31:49;99849.97;;;16.41;71.82
59055;BME280;44845;51.444;7.460;2023-05-07T08:34:14;99855.19;;;16.43;69.98
59055;BME280;44845;51.444;7.460;2023-05-07T08:36:40;99862.25;;;16.42;70.35
59055;BME280;44845;51.444;7.460;2023-05-07T08:39:07;99863.13;;;16.43;71.81
59055;BME280;44845;51.444;7.460;2023-05-07T08:41:32;99856.56;;;16.55;71.76
59055;BME280;44845;51.444;7.460;2023-05-07T08:43:58;99859.84;;;16.63;70.72
59055;BME280;44845;51.444;7.460;2023-05-07T08:46:25;99856.06;;;16.71;70.98
59055;BME280;44845;51.444;7.460;2023-05-07T08:48:51;99864.56;;;16.81;72.31
59055;BME280;44845;51.444;7.460;2023-05-07T08:51:20;99865.38;;;16.83;70.47
59055;BME280;44845;51.444;7.460;2023-05-07T08:53:47;99859.03;;;16.88;70.65
59055;BME280;44845;51.444;7.460;2023-05-07T08:56:16;99864.53;;;17.08;71.08
59055;BME280;44845;51.444;7.460;2023-05-07T08:58:44;99862.41;;;17.19;70.61
59055;BME280;44845;51.444;7.460;2023-05-07T09:01:14;99856.47;;;17.11;70.76
59055;BME280;44845;51.444;7.460;2023-05-07T09:03:39;99856.97;;;16.97;71.60
59055;BME280;44845;51.444;7.460;2023-05-07T09:06:05;99856.28;;;17.17;71.49
59055;BME280;44845;51.444;7.460;2023-05-07T09:08:33;99857.34;;;17.11;72.14
59055;BME280;44845;51.444;7.460;2023-05-07T09:10:58;99843.13;;;17.14;73.38
59055;BME280;44845;51.444;7.460;2023-05-07T09:13:24;99844.47;;;17.28;73.98
59055;BME280;44845;51.444;7.460;2023-05-07T09:15:50;99849.34;;;17.39;72.66
59055;BME280;44845;51.444;7.460;2023-05-07T09:18:15;99848.44;;;17.40;72.19
59055;BME280;44845;51.444;7.460;2023-05-07T09:20:40;99849.97;;;17.45;72.41
59055;BME280;44845;51.444;7.460;2023-05-07T09:23:06;99850.69;;;17.51;73.26
59055;BME280;44845;51.444;7.460;2023-05-07T09:25:33;99854.03;;;17.56;72.96
59055;BME280;44845;51.444;7.460;2023-05-07T09:28:02;99846.66;;;17.64;71.98
59055;BME280;44845;51.444;7.460;2023-05-07T09:30:29;99848.16;;;17.72;72.26
59055;BME280;44845;51.444;7.460;2023-05-07T09:32:55;99854.84;;;17.58;71.95
59055;BME280;44845;51.444;7.460;2023-05-07T09:35:21;99852.53;;;17.49;72.61
59055;BME280;44845;51.444;7.460;2023-05-07T09:37:49;99853.94;;;17.59;72.77
59055;BME280;44845;51.444;7.460;2023-05-07T09:40:22;99855.59;;;17.62;72.47
59055;BME280;44845;51.444;7.460;2023-05-07T09:42:49;99857.50;;;17.58;72.38
59055;BME280;44845;51.444;7.460;2023-05-07T09:45:16;99857.38;;;17.61;72.53
59055;BME280;44845;51.444;7.460;2023-05-07T09:47:42;99850.78;;;17.48;72.91
59055;BME280;44845;51.444;7.460;2023-05-07T09:50:10;99863.25;;;17.45;73.18
59055;BME280;44845;51.444;7.460;2023-05-07T09:52:38;99857.59;;;17.55;73.40
59055;BME280;44845;51.444;7.460;2023-05-07T09:55:06;99862.31;;;17.47;72.99
59055;BME280;44845;51.444;7.460;2023-05-07T09:57:33;99866.50;;;17.54;71.85
59055;BME280;44845;51.444;7.460;2023-05-07T10:00:01;99866.59;;;17.51;71.93
59055;BME280;44845;51.444;7.460;2023-05-07T10:02:30;99860.84;;;17.63;72.33
59055;BME280;44845;51.444;7.460;2023-05-07T10:04:57;99871.44;;;17.63;71.92
59055;BME280;44845;51.444;7.460;2023-05-07T10:07:24;99864.25;;;17.67;72.53
59055;BME280;44845;51.444;7.460;2023-05-07T10:09:50;99855.50;;;17.87;71.67
59055;BME280;44845;51.444;7.460;2023-05-07T10:12:17;99854.50;;;17.92;70.73
59055;BME280;44845;51.444;7.460;2023-05-07T10:14:43;99859.41;;;17.78;70.93
59055;BME280;44845;51.444;7.460;2023-05-07T10:17:09;99872.13;;;17.93;69.54
59055;BME280;44845;51.444;7.460;2023-05-07T10:19:37;99865.31;;;17.85;69.82
59055;BME280;44845;51.444;7.460;2023-05-07T10:22:05;99857.53;;;17.81;66.03
59055;BME280;44845;51.444;7.460;2023-05-07T10:24:35;99859.50;;;17.75;66.91
59055;BME280;44845;51.444;7.460;2023-05-07T10:27:04;99857.03;;;17.71;67.06
59055;BME280;44845;51.444;7.460;2023-05-07T10:29:38;99854.47;;;17.67;67.48
59055;BME280;44845;51.444;7.460;2023-05-07T10:35:02;99860.66;;;17.68;67.51
59055;BME280;44845;51.444;7.460;2023-05-07T10:37:28;99863.94;;;17.75;67.70
59055;BME280;44845;51.444;7.460;2023-05-07T10:39:54;99858.63;;;17.75;67.37
59055;BME280;44845;51.444;7.460;2023-05-07T10:42:20;99855.75;;;17.81;67.08
59055;BME280;44845;51.444;7.460;2023-05-07T10:44:45;99863.53;;;17.86;67.48
59055;BME280;44845;51.444;7.460;2023-05-07T10:47:12;99859.72;;;17.93;67.33
59055;BME280;44845;51.444;7.460;2023-05-07T10:52:18;99852.56;;;18.19;66.27
59055;BME280;44845;51.444;7.460;2023-05-07T10:54:44;99856.50;;;18.31;65.22
59055;BME280;44845;51.444;7.460;2023-05-07T10:59:57;99849.00;;;18.20;65.83
59055;BME280;44845;51.444;7.460;2023-05-07T11:02:22;99857.44;;;18.30;64.35
59055;BME280;44845;51.444;7.460;2023-05-07T11:05:22;99861.78;;;18.33;64.32
59055;BME280;44845;51.444;7.460;2023-05-07T11:07:59;99850.31;;;18.53;63.59
59055;BME280;44845;51.444;7.460;2023-05-07T11:10:56;99848.69;;;18.51;63.77
59055;BME280;44845;51.444;7.460;2023-05-07T11:13:44;99842.25;;;18.56;63.79
59055;BME280;44845;51.444;7.460;2023-05-07T11:16:17;99841.59;;;18.72;63.67
59055;BME280;44845;51.444;7.460;2023-05-07T11:18:54;99838.66;;;18.78;62.64
59055;BME280;44845;51.444;7.460;2023-05-07T11:21:40;99846.13;;;18.70;63.45
59055;BME280;44845;51.444;7.460;2023-05-07T11:24:07;99837.75;;;18.79;64.58
59055;BME280;44845;51.444;7.460;2023-05-07T11:26:49;99840.09;;;18.87;62.18
59055;BME280;44845;51.444;7.460;2023-05-07T11:29:20;99837.03;;;18.97;61.82
59055;BME280;44845;51.444;7.460;2023-05-07T11:31:49;99847.19;;;18.87;61.67
59055;BME280;44845;51.444;7.460;2023-05-07T11:34:15;99841.22;;;18.82;61.98
59055;BME280;44845;51.444;7.460;2023-05-07T11:36:46;99847.97;;;18.89;64.08
59055;BME280;44845;51.444;7.460;2023-05-07T11:39:29;99841.91;;;18.85;61.00
59055;BME280;44845;51.444;7.460;2023-05-07T11:41:55;99845.66;;;18.81;63.85
59055;BME280;44845;51.444;7.460;2023-05-07T11:44:21;99838.44;;;18.85;63.72
59055;BME280;44845;51.444;7.460;2023-05-07T11:46:46;99843.94;;;18.80;64.22
59055;BME280;44845;51.444;7.460;2023-05-07T11:49:11;99848.50;;;18.76;63.37
59055;BME280;44845;51.444;7.460;2023-05-07T11:51:37;99847.78;;;18.73;64.04
59055;BME280;44845;51.444;7.460;2023-05-07T11:54:04;99843.88;;;18.82;63.50
59055;BME280;44845;51.444;7.460;2023-05-07T11:56:34;99843.00;;;18.81;64.02
59055;BME280;44845;51.444;7.460;2023-05-07T11:59:00;99843.31;;;18.73;64.50
59055;BME280;44845;51.444;7.460;2023-05-07T12:01:26;99843.75;;;18.85;61.92
59055;BME280;44845;51.444;7.460;2023-05-07T12:03:51;99847.31;;;18.84;62.17
59055;BME280;44845;51.444;7.460;2023-05-07T12:06:17;99850.28;;;18.76;61.94
59055;BME280;44845;51.444;7.460;2023-05-07T12:08:44;99849.56;;;18.72;62.85
59055;BME280;44845;51.444;7.460;2023-05-07T12:11:15;99854.59;;;18.78;62.01
59055;BME280;44845;51.444;7.460;2023-05-07T12:13:42;99855.75;;;18.73;62.04
59055;BME280;44845;51.444;7.460;2023-05-07T12:16:08;99846.25;;;18.67;63.22
59055;BME280;44845;51.444;7.460;2023-05-07T12:18:35;99856.50;;;18.54;63.59
59055;BME280;44845;51.444;7.460;2023-05-07T12:21:01;99860.28;;;18.48;63.38
59055;BME280;44845;51.444;7.460;2023-05-07T12:23:28;99857.50;;;18.51;63.39
59055;BME280;44845;51.444;7.460;2023-05-07T12:25:53;99864.78;;;18.46;64.48
59055;BME280;44845;51.444;7.460;2023-05-07T12:28:19;99858.66;;;18.44;64.17
59055;BME280;44845;51.444;7.460;2023-05-07T12:30:46;99858.00;;;18.39;64.35
59055;BME280;44845;51.444;7.460;2023-05-07T12:33:16;99858.81;;;18.41;64.87
59055;BME280;44845;51.444;7.460;2023-05-07T12:35:42;99866.78;;;18.41;64.64
59055;BME280;44845;51.444;7.460;2023-05-07T12:38:15;99870.47;;;18.37;64.63
59055;BME280;44845;51.444;7.460;2023-05-07T12:40:47;99868.38;;;18.45;62.88
59055;BME280;44845;51.444;7.460;2023-05-07T12:43:28;99864.06;;;18.42;62.79
59055;BME280;44845;51.444;7.460;2023-05-07T12:45:56;99875.53;;;18.43;62.90
59055;BME280;44845;51.444;7.460;2023-05-07T12:48:22;99872.09;;;18.41;62.98
59055;BME280;44845;51.444;7.460;2023-05-07T12:50:52;99875.41;;;18.46;63.72
59055;BME280;44845;51.444;7.460;2023-05-07T12:53:20;99875.16;;;18.52;63.65
59055;BME280;44845;51.444;7.460;2023-05-07T12:55:48;99882.81;;;18.60;62.34
59055;BME280;44845;51.444;7.460;2023-05-07T12:58:18;99877.56;;;18.59;61.77
59055;BME280;44845;51.444;7.460;2023-05-07T13:00:44;99882.06;;;18.56;62.38
59055;BME280;44845;51.444;7.460;2023-05-07T13:03:10;99888.97;;;18.61;62.54
59055;BME280;44845;51.444;7.460;2023-05-07T13:05:36;99879.19;;;18.63;63.19